Time;durP1;ratioP1;P1;durP2;ratioP2;P2;SDS_P1;SDS_P2;PMS_P1;PMS_P2;Temp;Humidity;BMP_temperature;BMP_pressure;BME280_temperature;BME280_humidity;BME280_pressure;Samples;Min_cycle;Max_cycle;Signal;HPM_P1;HPM_P2
2022/04/14 00:01:51;;;;;;;19.33;8.47;;;;;;;;;;5036815;28;20676;-85
2022/04/14 00:04:19;;;;;;;17.47;7.77;;;;;;;;;;5034252;28;20226;-85
2022/04/14 00:06:47;;;;;;;14.83;7.37;;;;;;;;;;5032626;28;20207;-85
2022/04/14 00:09:14;;;;;;;16.53;7.13;;;;;;;;;;5031457;28;20214;-86
2022/04/14 00:11:42;;;;;;;23.47;7.50;;;;;;;;;;5028266;28;20208;-86
2022/04/14 00:14:09;;;;;;;14.90;7.33;;;;;;;;;;5029754;28;21170;-84
2022/04/14 00:16:36;;;;;;;17.07;6.77;;;;;;;;;;5023362;28;20203;-86
2022/04/14 00:19:04;;;;;;;15.37;6.97;;;;;;;;;;5025010;28;20684;-83
2022/04/14 00:21:32;;;;;;;17.23;8.20;;;;;;;;;;5021299;28;20259;-85
2022/04/14 00:23:59;;;;;;;11.90;7.40;;;;;;;;;;5021885;28;20270;-83
2022/04/14 00:26:26;;;;;;;14.87;6.40;;;;;;;;;;5030685;28;20291;-85
2022/04/14 00:28:54;;;;;;;14.27;7.67;;;;;;;;;;5030259;28;20287;-83
2022/04/14 00:31:21;;;;;;;19.43;8.93;;;;;;;;;;5026819;28;20228;-85
2022/04/14 00:33:48;;;;;;;14.90;7.50;;;;;;;;;;5028881;28;20235;-85
2022/04/14 00:36:15;;;;;;;22.43;10.03;;;;;;;;;;5027040;28;20754;-86
2022/04/14 00:38:44;;;;;;;22.73;11.20;;;;;;;;;;5026617;28;20203;-83
2022/04/14 00:41:11;;;;;;;17.67;9.67;;;;;;;;;;5028228;28;20261;-83
2022/04/14 00:43:39;;;;;;;21.10;9.40;;;;;;;;;;5023268;28;20691;-82
2022/04/14 00:46:06;;;;;;;21.70;8.43;;;;;;;;;;5026605;28;20224;-83
2022/04/14 00:48:34;;;;;;;14.93;7.83;;;;;;;;;;5026708;28;20282;-83
2022/04/14 00:51:03;;;;;;;11.10;7.07;;;;;;;;;;5026650;28;20616;-83
2022/04/14 00:53:30;;;;;;;14.60;8.07;;;;;;;;;;5027343;28;20298;-83
2022/04/14 00:55:59;;;;;;;16.77;8.70;;;;;;;;;;5025620;28;20204;-83
2022/04/14 00:58:26;;;;;;;16.27;8.00;;;;;;;;;;5025868;28;20273;-83
2022/04/14 01:00:53;;;;;;;18.03;8.23;;;;;;;;;;5025773;28;20223;-83
2022/04/14 01:03:20;;;;;;;14.50;7.37;;;;;;;;;;5032835;28;20208;-83
2022/04/14 01:05:48;;;;;;;13.30;7.30;;;;;;;;;;5026491;28;20686;-83
2022/04/14 01:08:17;;;;;;;17.83;8.83;;;;;;;;;;5021017;28;20271;-83
2022/04/14 01:10:47;;;;;;;17.93;8.47;;;;;;;;;;5026108;28;20236;-84
2022/04/14 01:13:15;;;;;;;17.93;10.20;;;;;;;;;;5025723;28;20308;-84
2022/04/14 01:15:42;;;;;;;27.97;12.90;;;;;;;;;;5023222;28;20218;-84
2022/04/14 01:18:10;;;;;;;23.33;11.13;;;;;;;;;;5030196;28;20672;-83
2022/04/14 01:20:37;;;;;;;19.83;10.07;;;;;;;;;;5032262;28;20223;-86
2022/04/14 01:23:05;;;;;;;20.23;10.53;;;;;;;;;;5043237;28;20662;-87
2022/04/14 01:25:34;;;;;;;22.40;10.43;;;;;;;;;;5030865;28;20413;-85
2022/04/14 01:28:02;;;;;;;23.20;13.20;;;;;;;;;;5035467;28;20276;-86
2022/04/14 01:30:30;;;;;;;24.77;13.47;;;;;;;;;;5037266;28;20219;-84
2022/04/14 01:32:57;;;;;;;22.27;11.77;;;;;;;;;;5034215;28;20200;-85
2022/04/14 01:35:25;;;;;;;24.50;11.93;;;;;;;;;;5038266;28;20199;-85
2022/04/14 01:37:52;;;;;;;26.03;13.53;;;;;;;;;;5027334;28;20202;-85
2022/04/14 01:40:20;;;;;;;30.10;13.43;;;;;;;;;;5023451;28;20246;-85
2022/04/14 01:42:49;;;;;;;19.27;11.33;;;;;;;;;;5028687;28;20211;-86
2022/04/14 01:45:16;;;;;;;26.57;13.10;;;;;;;;;;5035865;28;20223;-85
2022/04/14 01:47:43;;;;;;;20.07;12.33;;;;;;;;;;5030743;28;20711;-83
2022/04/14 01:50:12;;;;;;;15.67;10.17;;;;;;;;;;5032219;28;20292;-84
2022/04/14 01:52:40;;;;;;;24.30;11.50;;;;;;;;;;5030638;28;20656;-84
2022/04/14 01:55:08;;;;;;;24.00;12.43;;;;;;;;;;5028163;28;20242;-84
2022/04/14 01:57:35;;;;;;;23.23;11.67;;;;;;;;;;5029957;28;20210;-84
2022/04/14 02:00:08;;;;;;;25.57;11.80;;;;;;;;;;5030426;28;20232;-84
2022/04/14 02:02:35;;;;;;;24.97;10.67;;;;;;;;;;5025681;28;20208;-83
2022/04/14 02:05:03;;;;;;;30.67;15.03;;;;;;;;;;5035289;28;20234;-84
2022/04/14 02:07:30;;;;;;;29.87;12.87;;;;;;;;;;5029060;28;20204;-84
2022/04/14 02:09:57;;;;;;;27.90;14.37;;;;;;;;;;5029270;28;20610;-84
2022/04/14 02:12:25;;;;;;;29.93;13.90;;;;;;;;;;5027843;28;20238;-84
2022/04/14 02:14:52;;;;;;;31.03;15.90;;;;;;;;;;5021784;28;20616;-84
2022/04/14 02:17:21;;;;;;;32.90;15.97;;;;;;;;;;5026421;28;20218;-84
2022/04/14 02:19:48;;;;;;;32.40;15.60;;;;;;;;;;5031602;28;20228;-83
2022/04/14 02:22:15;;;;;;;29.57;15.90;;;;;;;;;;5031617;28;20213;-83
2022/04/14 02:24:42;;;;;;;33.10;15.77;;;;;;;;;;5029876;28;20314;-85
2022/04/14 02:27:10;;;;;;;30.87;15.93;;;;;;;;;;5025418;28;20215;-85
2022/04/14 02:29:37;;;;;;;32.93;15.13;;;;;;;;;;5026462;28;20251;-85
2022/04/14 02:32:04;;;;;;;28.30;15.47;;;;;;;;;;5026632;28;20216;-84
2022/04/14 02:34:33;;;;;;;34.03;15.17;;;;;;;;;;5027095;28;20208;-85
2022/04/14 02:37:00;;;;;;;28.47;14.77;;;;;;;;;;5030423;28;20210;-85
2022/04/14 02:39:27;;;;;;;27.77;14.87;;;;;;;;;;5034533;28;20223;-86
2022/04/14 02:41:55;;;;;;;32.13;16.00;;;;;;;;;;5027179;28;20231;-87
2022/04/14 02:44:22;;;;;;;30.77;16.03;;;;;;;;;;5034754;28;20207;-85
2022/04/14 02:46:49;;;;;;;33.70;17.37;;;;;;;;;;5028483;28;20204;-87
2022/04/14 02:49:16;;;;;;;38.10;18.73;;;;;;;;;;5036553;28;20208;-86
2022/04/14 02:51:45;;;;;;;32.77;17.70;;;;;;;;;;5036217;28;20430;-86
2022/04/14 02:54:12;;;;;;;34.00;17.30;;;;;;;;;;5027279;28;20215;-85
2022/04/14 02:56:39;;;;;;;37.20;15.77;;;;;;;;;;5024702;28;20204;-86
2022/04/14 02:59:06;;;;;;;30.53;16.43;;;;;;;;;;5033403;28;20222;-86
2022/04/14 03:01:33;;;;;;;32.47;14.70;;;;;;;;;;5026146;28;20295;-86
2022/04/14 03:04:01;;;;;;;30.40;14.03;;;;;;;;;;5029766;28;20211;-86
2022/04/14 03:06:28;;;;;;;39.90;14.33;;;;;;;;;;5024827;28;20228;-83
2022/04/14 03:08:56;;;;;;;28.23;13.40;;;;;;;;;;5024052;28;20550;-83
2022/04/14 03:11:23;;;;;;;24.97;13.40;;;;;;;;;;5050764;22;20230;-79
2022/04/14 03:13:50;;;;;;;30.23;14.53;;;;;;;;;;5038137;28;20206;-77
2022/04/14 03:16:18;;;;;;;27.37;13.27;;;;;;;;;;5039398;28;20295;-78
2022/04/14 03:18:45;;;;;;;32.00;15.17;;;;;;;;;;5035376;28;20583;-77
2022/04/14 03:21:12;;;;;;;33.43;16.50;;;;;;;;;;5042607;28;20607;-80
2022/04/14 03:23:40;;;;;;;28.17;15.63;;;;;;;;;;5043847;28;20234;-79
2022/04/14 03:26:09;;;;;;;31.73;17.13;;;;;;;;;;5034745;28;20480;-79
2022/04/14 03:28:36;;;;;;;34.33;17.23;;;;;;;;;;5043378;28;20206;-80
2022/04/14 03:31:05;;;;;;;37.60;19.03;;;;;;;;;;5036991;28;20223;-80
2022/04/14 03:33:32;;;;;;;33.17;15.60;;;;;;;;;;5038671;28;20214;-78
2022/04/14 03:35:59;;;;;;;27.73;14.77;;;;;;;;;;5037382;28;20233;-79
2022/04/14 03:38:27;;;;;;;27.97;14.90;;;;;;;;;;5037641;28;20214;-80
2022/04/14 03:40:54;;;;;;;35.90;17.03;;;;;;;;;;5035516;28;20778;-80
2022/04/14 03:43:22;;;;;;;32.87;16.30;;;;;;;;;;5039408;28;20818;-79
2022/04/14 03:45:50;;;;;;;33.60;16.80;;;;;;;;;;5039187;28;20250;-78
2022/04/14 03:48:17;;;;;;;28.87;16.20;;;;;;;;;;5042612;28;20214;-81
2022/04/14 03:50:44;;;;;;;35.67;16.13;;;;;;;;;;5038773;28;20799;-79
2022/04/14 03:53:11;;;;;;;40.00;17.33;;;;;;;;;;5044330;28;20212;-80
2022/04/14 03:55:38;;;;;;;38.10;18.53;;;;;;;;;;5035356;28;20293;-80
2022/04/14 03:58:06;;;;;;;38.70;18.13;;;;;;;;;;5041382;28;20758;-79
2022/04/14 04:00:34;;;;;;;37.00;18.40;;;;;;;;;;5035509;28;20305;-80
2022/04/14 04:03:02;;;;;;;43.10;17.47;;;;;;;;;;5042081;28;20683;-79
2022/04/14 04:05:29;;;;;;;34.97;17.00;;;;;;;;;;5041833;28;20227;-79
2022/04/14 04:07:56;;;;;;;38.40;18.20;;;;;;;;;;5038341;28;20206;-79
2022/04/14 04:10:23;;;;;;;47.70;19.67;;;;;;;;;;5041637;28;20242;-79
2022/04/14 04:12:50;;;;;;;41.17;19.90;;;;;;;;;;5038104;28;20306;-79
2022/04/14 04:15:17;;;;;;;39.63;19.43;;;;;;;;;;5038094;28;20226;-81
2022/04/14 04:17:46;;;;;;;38.07;19.10;;;;;;;;;;5039608;28;20207;-78
2022/04/14 04:20:14;;;;;;;42.03;19.60;;;;;;;;;;5042820;28;20218;-77
2022/04/14 04:22:41;;;;;;;31.63;15.47;;;;;;;;;;5041340;28;20688;-79
2022/04/14 04:25:08;;;;;;;34.50;17.70;;;;;;;;;;5044601;28;20215;-81
2022/04/14 04:27:36;;;;;;;36.50;17.73;;;;;;;;;;5045797;28;20239;-80
2022/04/14 04:30:04;;;;;;;39.07;19.27;;;;;;;;;;5043079;28;20258;-80
2022/04/14 04:32:33;;;;;;;52.10;20.10;;;;;;;;;;5041209;28;20605;-76
2022/04/14 04:35:02;;;;;;;36.73;18.70;;;;;;;;;;5042671;28;20846;-78
2022/04/14 04:37:29;;;;;;;46.43;21.10;;;;;;;;;;5037404;28;20206;-81
2022/04/14 04:39:56;;;;;;;44.27;22.13;;;;;;;;;;5039120;28;20318;-81
2022/04/14 04:42:23;;;;;;;41.83;21.63;;;;;;;;;;5036187;28;20233;-80
2022/04/14 04:44:50;;;;;;;44.10;20.43;;;;;;;;;;5040366;28;20199;-80
2022/04/14 04:47:20;;;;;;;40.73;20.77;;;;;;;;;;5038503;28;20298;-78
2022/04/14 04:49:47;;;;;;;50.87;21.47;;;;;;;;;;5041215;28;20289;-81
2022/04/14 04:52:15;;;;;;;45.50;21.17;;;;;;;;;;5037775;28;20753;-79
2022/04/14 04:54:43;;;;;;;41.77;20.23;;;;;;;;;;5039278;28;20211;-81
2022/04/14 04:57:10;;;;;;;44.70;18.23;;;;;;;;;;5039986;28;20774;-77
2022/04/14 04:59:37;;;;;;;41.37;18.70;;;;;;;;;;5039569;28;20673;-80
2022/04/14 05:02:04;;;;;;;48.87;18.93;;;;;;;;;;5033007;28;20289;-77
2022/04/14 05:04:32;;;;;;;43.17;18.97;;;;;;;;;;5036076;28;20290;-78
2022/04/14 05:06:59;;;;;;;44.20;19.53;;;;;;;;;;5035970;28;20322;-80
2022/04/14 05:09:27;;;;;;;33.27;17.90;;;;;;;;;;5037436;28;20214;-78
2022/04/14 05:11:54;;;;;;;33.73;17.40;;;;;;;;;;5036444;28;20326;-79
2022/04/14 05:14:22;;;;;;;39.90;18.00;;;;;;;;;;5039813;28;20227;-80
2022/04/14 05:16:49;;;;;;;38.73;18.40;;;;;;;;;;5037764;28;20282;-79
2022/04/14 05:19:16;;;;;;;41.97;18.70;;;;;;;;;;5032779;28;20207;-80
2022/04/14 05:21:45;;;;;;;37.73;17.57;;;;;;;;;;5037421;28;20642;-80
2022/04/14 05:24:12;;;;;;;37.83;17.83;;;;;;;;;;5037740;28;20264;-79
2022/04/14 05:26:40;;;;;;;40.27;18.87;;;;;;;;;;5034072;28;20226;-77
2022/04/14 05:29:09;;;;;;;34.83;17.90;;;;;;;;;;5037352;28;20211;-78
2022/04/14 05:31:36;;;;;;;38.00;18.60;;;;;;;;;;5040079;28;20641;-79
2022/04/14 05:34:03;;;;;;;37.87;17.83;;;;;;;;;;5042825;28;20207;-78
2022/04/14 05:36:30;;;;;;;44.00;20.17;;;;;;;;;;5041850;28;20695;-79
2022/04/14 05:38:58;;;;;;;36.90;18.97;;;;;;;;;;5042039;28;20265;-80
2022/04/14 05:41:25;;;;;;;41.60;19.93;;;;;;;;;;5046695;28;20612;-80
2022/04/14 05:43:55;;;;;;;47.47;21.33;;;;;;;;;;5041409;28;20294;-80
2022/04/14 05:46:22;;;;;;;38.20;20.77;;;;;;;;;;5045488;28;20235;-78
2022/04/14 05:48:49;;;;;;;46.23;20.20;;;;;;;;;;5037740;28;20245;-80
2022/04/14 05:51:17;;;;;;;42.40;19.90;;;;;;;;;;5040753;28;20231;-80
2022/04/14 05:53:44;;;;;;;43.83;20.40;;;;;;;;;;5043463;28;20211;-79
2022/04/14 05:56:13;;;;;;;45.40;20.90;;;;;;;;;;5044797;28;20207;-81
2022/04/14 05:58:40;;;;;;;43.03;20.23;;;;;;;;;;5039703;28;20213;-80
2022/04/14 06:01:09;;;;;;;39.80;20.60;;;;;;;;;;5038229;28;20235;-80
2022/04/14 06:03:36;;;;;;;41.13;19.77;;;;;;;;;;5041278;28;20669;-79
2022/04/14 06:06:03;;;;;;;35.07;19.43;;;;;;;;;;5037063;28;20317;-80
2022/04/14 06:08:30;;;;;;;39.10;19.83;;;;;;;;;;5043222;28;20286;-79
2022/04/14 06:10:57;;;;;;;45.47;19.63;;;;;;;;;;5047805;28;20269;-80
2022/04/14 06:13:25;;;;;;;39.57;19.20;;;;;;;;;;5040899;28;20636;-80
2022/04/14 06:15:52;;;;;;;39.63;18.77;;;;;;;;;;5039004;28;20452;-80
2022/04/14 06:18:21;;;;;;;36.47;18.93;;;;;;;;;;5039356;28;20230;-80
2022/04/14 06:20:49;;;;;;;44.13;18.43;;;;;;;;;;5036260;28;20227;-79
2022/04/14 06:23:17;;;;;;;35.10;18.07;;;;;;;;;;5038478;28;20595;-78
2022/04/14 06:25:49;;;;;;;46.57;20.83;;;;;;;;;;5043410;28;20210;-77
2022/04/14 06:28:16;;;;;;;38.73;20.57;;;;;;;;;;5042537;28;20695;-81
2022/04/14 06:30:44;;;;;;;38.50;20.90;;;;;;;;;;5042538;28;20230;-78
2022/04/14 06:33:11;;;;;;;41.17;21.87;;;;;;;;;;5040123;28;20321;-79
2022/04/14 06:35:40;;;;;;;40.67;21.37;;;;;;;;;;5043827;28;20232;-81
2022/04/14 06:38:07;;;;;;;44.90;20.87;;;;;;;;;;5036130;28;20203;-79
2022/04/14 06:40:35;;;;;;;42.57;21.87;;;;;;;;;;5039859;28;20283;-81
2022/04/14 06:43:02;;;;;;;47.90;22.97;;;;;;;;;;5041260;28;20211;-80
2022/04/14 06:45:30;;;;;;;47.10;23.07;;;;;;;;;;5039954;28;20225;-80
2022/04/14 06:47:57;;;;;;;45.00;23.00;;;;;;;;;;5041942;28;20239;-79
2022/04/14 06:50:24;;;;;;;50.73;23.20;;;;;;;;;;5050364;28;20239;-81
2022/04/14 06:52:53;;;;;;;44.50;22.10;;;;;;;;;;5047875;28;20281;-80
2022/04/14 06:55:21;;;;;;;40.77;21.50;;;;;;;;;;5044393;28;20239;-80
2022/04/14 06:57:49;;;;;;;46.23;22.20;;;;;;;;;;5038765;28;20562;-81
2022/04/14 07:00:16;;;;;;;51.50;21.73;;;;;;;;;;5043433;28;20241;-80
2022/04/14 07:02:47;;;;;;;49.73;20.87;;;;;;;;;;5035362;28;20648;-78
2022/04/14 07:05:14;;;;;;;41.20;22.13;;;;;;;;;;5038444;28;20261;-80
2022/04/14 07:07:42;;;;;;;41.43;20.90;;;;;;;;;;5036067;28;20219;-78
2022/04/14 07:10:12;;;;;;;41.10;21.43;;;;;;;;;;5032509;28;20768;-80
2022/04/14 07:12:39;;;;;;;50.33;22.07;;;;;;;;;;5043152;28;20217;-79
2022/04/14 07:15:07;;;;;;;45.40;21.97;;;;;;;;;;5035072;28;20202;-80
2022/04/14 07:17:34;;;;;;;43.53;20.07;;;;;;;;;;5040793;28;20748;-80
2022/04/14 07:20:03;;;;;;;44.40;20.47;;;;;;;;;;5040426;28;20234;-78
2022/04/14 07:22:31;;;;;;;46.20;21.80;;;;;;;;;;5034968;28;20202;-80
2022/04/14 07:24:59;;;;;;;44.63;21.43;;;;;;;;;;5037998;28;20214;-79
2022/04/14 07:27:28;;;;;;;44.17;20.17;;;;;;;;;;5037846;28;20234;-79
2022/04/14 07:29:55;;;;;;;53.83;24.87;;;;;;;;;;5044114;28;20727;-79
2022/04/14 07:32:22;;;;;;;42.60;20.73;;;;;;;;;;5037655;28;20681;-81
2022/04/14 07:34:49;;;;;;;43.27;20.87;;;;;;;;;;5037529;28;20211;-81
2022/04/14 07:37:16;;;;;;;44.27;21.50;;;;;;;;;;5040214;28;20203;-79
2022/04/14 07:39:44;;;;;;;47.57;21.10;;;;;;;;;;5040440;28;20298;-81
2022/04/14 07:42:11;;;;;;;43.33;19.30;;;;;;;;;;5038082;28;20298;-82
2022/04/14 07:44:39;;;;;;;43.03;19.97;;;;;;;;;;5041979;28;20203;-82
2022/04/14 07:47:07;;;;;;;54.33;27.77;;;;;;;;;;5052343;28;20309;-82
2022/04/14 07:49:34;;;;;;;41.93;18.87;;;;;;;;;;5047538;28;20203;-83
2022/04/14 07:52:01;;;;;;;53.30;27.83;;;;;;;;;;5049664;28;20226;-82
2022/04/14 07:54:28;;;;;;;48.40;23.67;;;;;;;;;;5051844;28;20195;-82
2022/04/14 07:56:57;;;;;;;42.63;18.87;;;;;;;;;;5042185;28;20665;-83
2022/04/14 07:59:24;;;;;;;42.03;18.77;;;;;;;;;;5041616;28;20208;-82
2022/04/14 08:01:52;;;;;;;36.07;18.30;;;;;;;;;;5049060;28;20682;-83
2022/04/14 08:04:19;;;;;;;38.13;18.67;;;;;;;;;;5046073;28;20233;-82
2022/04/14 08:06:47;;;;;;;36.23;18.20;;;;;;;;;;5045845;28;20313;-83
2022/04/14 08:09:14;;;;;;;49.17;27.73;;;;;;;;;;5047396;28;20213;-82
2022/04/14 08:11:42;;;;;;;37.07;20.10;;;;;;;;;;5045242;28;20276;-82
2022/04/14 08:14:09;;;;;;;43.60;23.47;;;;;;;;;;5045630;28;20220;-82
2022/04/14 08:16:36;;;;;;;37.70;19.07;;;;;;;;;;5044793;28;20199;-82
2022/04/14 08:19:05;;;;;;;36.97;19.13;;;;;;;;;;5043440;28;20302;-82
2022/04/14 08:21:32;;;;;;;36.87;18.43;;;;;;;;;;5047151;28;20303;-83
2022/04/14 08:24:01;;;;;;;40.30;19.10;;;;;;;;;;5053215;28;20207;-83
2022/04/14 08:26:28;;;;;;;37.03;18.87;;;;;;;;;;5048639;28;20211;-83
2022/04/14 08:28:56;;;;;;;29.87;16.67;;;;;;;;;;5045201;28;20286;-82
2022/04/14 08:31:23;;;;;;;34.37;16.27;;;;;;;;;;5041673;28;20230;-83
2022/04/14 08:33:50;;;;;;;36.73;18.10;;;;;;;;;;5040505;28;20318;-82
2022/04/14 08:36:21;;;;;;;33.60;17.50;;;;;;;;;;5044593;28;20216;-83
2022/04/14 08:38:50;;;;;;;35.57;17.80;;;;;;;;;;5041118;28;20738;-83
2022/04/14 08:41:19;;;;;;;35.07;17.53;;;;;;;;;;5043498;28;20574;-82
2022/04/14 08:43:49;;;;;;;32.87;17.27;;;;;;;;;;5047337;28;20206;-82
2022/04/14 08:46:17;;;;;;;35.13;16.97;;;;;;;;;;5045743;28;20221;-82
2022/04/14 08:48:44;;;;;;;35.20;18.57;;;;;;;;;;5044109;28;20243;-82
2022/04/14 08:51:14;;;;;;;34.37;16.23;;;;;;;;;;5048982;28;20237;-82
2022/04/14 08:53:43;;;;;;;30.07;16.17;;;;;;;;;;5044600;28;20210;-82
2022/04/14 08:56:10;;;;;;;34.70;15.57;;;;;;;;;;5042876;28;20294;-82
2022/04/14 08:58:38;;;;;;;30.93;14.93;;;;;;;;;;5045237;28;20226;-82
2022/04/14 09:01:05;;;;;;;27.17;14.00;;;;;;;;;;5048069;28;20318;-82
2022/04/14 09:03:34;;;;;;;29.17;13.23;;;;;;;;;;5046042;28;20207;-82
2022/04/14 09:06:02;;;;;;;28.53;13.70;;;;;;;;;;5043897;28;20659;-82
2022/04/14 09:08:29;;;;;;;29.77;12.40;;;;;;;;;;5043002;28;20266;-82
2022/04/14 09:10:57;;;;;;;23.77;13.13;;;;;;;;;;5064936;22;21134;-81
2022/04/14 09:13:25;;;;;;;29.20;12.20;;;;;;;;;;5061889;28;20230;-81
2022/04/14 09:15:52;;;;;;;23.43;12.13;;;;;;;;;;5056829;28;20242;-80
2022/04/14 09:18:19;;;;;;;22.43;11.30;;;;;;;;;;5063667;28;20221;-80
2022/04/14 09:20:48;;;;;;;25.43;12.83;;;;;;;;;;5066619;28;20221;-79
2022/04/14 09:23:18;;;;;;;24.33;12.37;;;;;;;;;;5062766;28;20202;-80
2022/04/14 09:25:46;;;;;;;29.30;12.23;;;;;;;;;;5057911;28;20312;-80
2022/04/14 09:28:15;;;;;;;22.53;12.30;;;;;;;;;;5061387;28;20229;-79
2022/04/14 09:30:58;;;;;;;23.70;12.47;;;;;;;;;;5059990;28;20222;-79
2022/04/14 09:33:25;;;;;;;26.40;12.57;;;;;;;;;;5062088;28;20669;-79
2022/04/14 09:36:07;;;;;;;23.10;12.13;;;;;;;;;;5062145;28;20213;-79
2022/04/14 09:38:49;;;;;;;21.13;12.13;;;;;;;;;;5062736;28;20199;-79
2022/04/14 09:41:27;;;;;;;22.57;11.80;;;;;;;;;;5063002;28;20325;-79
2022/04/14 09:43:57;;;;;;;23.90;14.13;;;;;;;;;;5064289;28;20289;-80
2022/04/14 09:46:24;;;;;;;19.50;10.63;;;;;;;;;;5056538;28;20638;-79
2022/04/14 09:49:06;;;;;;;23.97;13.93;;;;;;;;;;5055696;28;20222;-78
2022/04/14 09:51:35;;;;;;;17.20;10.00;;;;;;;;;;5068132;28;20226;-80
2022/04/14 09:54:15;;;;;;;16.97;9.50;;;;;;;;;;5062355;28;20202;-80
2022/04/14 09:56:48;;;;;;;16.70;9.23;;;;;;;;;;5059427;28;20275;-79
2022/04/14 09:59:18;;;;;;;14.43;8.63;;;;;;;;;;5056724;28;20206;-78
2022/04/14 10:01:45;;;;;;;13.13;7.17;;;;;;;;;;5061689;28;20307;-79
2022/04/14 10:04:31;;;;;;;15.90;7.20;;;;;;;;;;5063408;28;20293;-80
2022/04/14 10:07:06;;;;;;;14.70;7.47;;;;;;;;;;5063966;28;20213;-79
2022/04/14 10:09:34;;;;;;;13.37;7.07;;;;;;;;;;5059557;28;20229;-79
2022/04/14 10:12:02;;;;;;;11.67;6.57;;;;;;;;;;5057788;28;20214;-79
2022/04/14 10:14:30;;;;;;;12.20;7.67;;;;;;;;;;5056764;28;20775;-79
2022/04/14 10:17:02;;;;;;;12.63;7.63;;;;;;;;;;5052723;28;20241;-78
2022/04/14 10:19:30;;;;;;;16.77;8.33;;;;;;;;;;5053042;28;20205;-78
2022/04/14 10:21:57;;;;;;;12.53;6.97;;;;;;;;;;5056327;28;20202;-80
2022/04/14 10:24:25;;;;;;;14.53;7.03;;;;;;;;;;5047305;28;20680;-79
2022/04/14 10:26:54;;;;;;;13.17;7.17;;;;;;;;;;5052537;28;20210;-79
2022/04/14 10:29:21;;;;;;;10.97;6.60;;;;;;;;;;5055786;28;20203;-79
2022/04/14 10:31:54;;;;;;;10.80;7.10;;;;;;;;;;5055632;28;20254;-80
2022/04/14 10:34:21;;;;;;;12.17;7.23;;;;;;;;;;5055825;28;20241;-79
2022/04/14 10:36:49;;;;;;;15.83;6.90;;;;;;;;;;5045892;28;20215;-79
2022/04/14 10:39:16;;;;;;;12.17;7.07;;;;;;;;;;5053858;28;20268;-79
2022/04/14 10:41:46;;;;;;;11.83;7.00;;;;;;;;;;5053501;28;20250;-80
2022/04/14 10:44:14;;;;;;;13.00;6.90;;;;;;;;;;5056449;28;20657;-79
2022/04/14 10:46:48;;;;;;;11.27;6.77;;;;;;;;;;5056358;28;20206;-80
2022/04/14 10:49:18;;;;;;;10.60;6.63;;;;;;;;;;5054171;28;20262;-78
2022/04/14 10:51:46;;;;;;;12.27;6.47;;;;;;;;;;5052133;28;20223;-78
2022/04/14 10:54:15;;;;;;;13.73;7.70;;;;;;;;;;5058703;28;21005;-79
2022/04/14 10:56:52;;;;;;;14.00;7.10;;;;;;;;;;5063221;28;20207;-79
2022/04/14 10:59:21;;;;;;;12.67;7.17;;;;;;;;;;5057683;28;20297;-78
2022/04/14 11:01:55;;;;;;;12.23;7.50;;;;;;;;;;5059255;28;20235;-78
2022/04/14 11:04:30;;;;;;;8.87;6.27;;;;;;;;;;5046553;28;20299;-78
2022/04/14 11:06:59;;;;;;;12.23;6.90;;;;;;;;;;5053344;28;20206;-78
2022/04/14 11:09:45;;;;;;;13.10;7.43;;;;;;;;;;5063725;28;20218;-79
2022/04/14 11:12:13;;;;;;;11.83;7.23;;;;;;;;;;5059123;28;20206;-78
2022/04/14 11:14:45;;;;;;;10.40;6.97;;;;;;;;;;5056558;28;20202;-78
2022/04/14 11:17:27;;;;;;;16.03;8.57;;;;;;;;;;5054769;28;20229;-79
2022/04/14 11:19:56;;;;;;;15.20;7.93;;;;;;;;;;5053414;28;21060;-77
2022/04/14 11:22:23;;;;;;;13.43;8.07;;;;;;;;;;5056090;28;20213;-78
2022/04/14 11:24:50;;;;;;;15.87;7.83;;;;;;;;;;5057095;28;20217;-78
2022/04/14 11:27:18;;;;;;;17.10;7.83;;;;;;;;;;5058284;28;20202;-78
2022/04/14 11:29:46;;;;;;;13.53;7.67;;;;;;;;;;5055379;28;20676;-77
2022/04/14 11:32:14;;;;;;;14.53;7.23;;;;;;;;;;5062030;28;20233;-78
2022/04/14 11:34:41;;;;;;;11.27;7.07;;;;;;;;;;5056317;28;20206;-79
2022/04/14 11:37:26;;;;;;;15.00;7.50;;;;;;;;;;5051484;28;20194;-78
2022/04/14 11:40:08;;;;;;;16.90;7.97;;;;;;;;;;5052633;28;20306;-78
2022/04/14 11:42:37;;;;;;;13.57;7.57;;;;;;;;;;5054348;28;20202;-77
2022/04/14 11:45:04;;;;;;;12.40;7.47;;;;;;;;;;5056333;28;20218;-78
2022/04/14 11:47:33;;;;;;;15.40;9.03;;;;;;;;;;5062468;28;20743;-78
2022/04/14 11:50:00;;;;;;;15.23;7.90;;;;;;;;;;5059397;28;20253;-78
2022/04/14 11:52:27;;;;;;;14.23;8.33;;;;;;;;;;5065975;28;20387;-78
2022/04/14 11:54:55;;;;;;;12.67;7.67;;;;;;;;;;5065777;28;20234;-78
2022/04/14 11:57:26;;;;;;;14.90;7.67;;;;;;;;;;5056366;28;20207;-77
2022/04/14 11:59:56;;;;;;;14.37;7.97;;;;;;;;;;5056774;28;20284;-77
2022/04/14 12:02:24;;;;;;;14.10;8.40;;;;;;;;;;5060029;28;20198;-77
2022/04/14 12:04:52;;;;;;;15.53;8.20;;;;;;;;;;5063106;28;20207;-77
2022/04/14 12:07:20;;;;;;;12.37;7.73;;;;;;;;;;5055555;28;20206;-78
2022/04/14 12:09:48;;;;;;;12.27;7.97;;;;;;;;;;5051865;28;20314;-78
2022/04/14 12:12:16;;;;;;;13.77;8.67;;;;;;;;;;5058947;28;20579;-78
2022/04/14 12:14:44;;;;;;;12.27;7.90;;;;;;;;;;5051377;28;20570;-78
2022/04/14 12:17:12;;;;;;;14.47;7.30;;;;;;;;;;5061363;28;20657;-78
2022/04/14 12:19:43;;;;;;;13.40;7.70;;;;;;;;;;5052756;28;20226;-77
2022/04/14 12:22:11;;;;;;;12.60;7.50;;;;;;;;;;5055940;28;20211;-78
2022/04/14 12:24:38;;;;;;;12.50;7.77;;;;;;;;;;5062847;28;20198;-77
2022/04/14 12:27:06;;;;;;;13.73;7.37;;;;;;;;;;5063101;28;20722;-78
2022/04/14 12:29:33;;;;;;;13.20;6.80;;;;;;;;;;5069307;28;20215;-78
2022/04/14 12:32:11;;;;;;;11.00;6.67;;;;;;;;;;5072034;28;20234;-81
2022/04/14 12:34:43;;;;;;;11.87;7.27;;;;;;;;;;5066366;28;20229;-77
2022/04/14 12:37:13;;;;;;;10.93;6.57;;;;;;;;;;5064334;28;20716;-79
2022/04/14 12:39:54;;;;;;;14.63;7.10;;;;;;;;;;5061569;28;20197;-78
2022/04/14 12:42:21;;;;;;;11.97;6.90;;;;;;;;;;5066369;28;20210;-79
2022/04/14 12:44:48;;;;;;;11.33;6.53;;;;;;;;;;5068388;28;20200;-79
2022/04/14 12:47:16;;;;;;;9.83;5.70;;;;;;;;;;5064013;28;20556;-79
2022/04/14 12:49:45;;;;;;;8.67;5.20;;;;;;;;;;5064878;28;20222;-78
2022/04/14 12:52:20;;;;;;;10.90;5.43;;;;;;;;;;5061308;28;20213;-78
2022/04/14 12:54:47;;;;;;;10.93;5.97;;;;;;;;;;5063893;28;20646;-79
2022/04/14 12:57:19;;;;;;;10.07;6.17;;;;;;;;;;5061500;28;20301;-78
2022/04/14 13:00:00;;;;;;;9.17;5.40;;;;;;;;;;5063817;28;20324;-79
2022/04/14 13:02:28;;;;;;;11.00;5.90;;;;;;;;;;5063229;28;20205;-78
2022/04/14 13:05:05;;;;;;;11.00;5.57;;;;;;;;;;5059976;28;20223;-79
2022/04/14 13:07:45;;;;;;;10.53;5.83;;;;;;;;;;5062293;28;20237;-79
2022/04/14 13:10:12;;;;;;;11.23;5.93;;;;;;;;;;5060914;28;20214;-78
2022/04/14 13:12:39;;;;;;;10.97;5.20;;;;;;;;;;5062362;28;20207;-79
2022/04/14 13:15:09;;;;;;;9.57;4.70;;;;;;;;;;5061572;28;20233;-79
2022/04/14 13:17:38;;;;;;;9.23;5.27;;;;;;;;;;5064027;28;20237;-79
2022/04/14 13:20:10;;;;;;;8.60;4.90;;;;;;;;;;5065876;28;20225;-79
2022/04/14 13:22:38;;;;;;;10.67;5.87;;;;;;;;;;5063246;28;20523;-79
2022/04/14 13:25:05;;;;;;;10.13;4.90;;;;;;;;;;5063855;28;20202;-79
2022/04/14 13:27:32;;;;;;;10.27;5.10;;;;;;;;;;5061894;28;20230;-79
2022/04/14 13:30:00;;;;;;;10.13;5.13;;;;;;;;;;5060170;28;20317;-79
2022/04/14 13:32:27;;;;;;;14.97;6.33;;;;;;;;;;5064370;28;20195;-79
2022/04/14 13:34:55;;;;;;;6.17;3.80;;;;;;;;;;5061684;28;20639;-78
2022/04/14 13:37:24;;;;;;;8.03;4.93;;;;;;;;;;5064664;28;20206;-79
2022/04/14 13:39:51;;;;;;;8.87;4.30;;;;;;;;;;5063746;28;20215;-78
2022/04/14 13:42:18;;;;;;;8.50;4.97;;;;;;;;;;5062693;28;20230;-79
2022/04/14 13:44:45;;;;;;;7.40;4.40;;;;;;;;;;5065171;28;20759;-79
2022/04/14 13:47:13;;;;;;;7.10;4.73;;;;;;;;;;5062016;28;20326;-79
2022/04/14 13:49:40;;;;;;;8.27;4.27;;;;;;;;;;5065724;28;20233;-79
2022/04/14 13:52:08;;;;;;;7.33;4.23;;;;;;;;;;5063140;28;20225;-79
2022/04/14 13:54:36;;;;;;;11.87;4.70;;;;;;;;;;5059706;28;20238;-78
2022/04/14 13:57:03;;;;;;;8.30;4.50;;;;;;;;;;5068691;28;20205;-79
2022/04/14 13:59:31;;;;;;;7.03;4.43;;;;;;;;;;5057835;28;20195;-79
2022/04/14 14:01:58;;;;;;;8.10;4.50;;;;;;;;;;5060408;28;20479;-80
2022/04/14 14:04:25;;;;;;;8.40;4.53;;;;;;;;;;5061768;28;20297;-78
2022/04/14 14:06:52;;;;;;;9.57;5.30;;;;;;;;;;5057581;28;20290;-79
2022/04/14 14:09:20;;;;;;;9.23;4.87;;;;;;;;;;5057144;28;20296;-78
2022/04/14 14:11:49;;;;;;;8.97;5.00;;;;;;;;;;5066428;28;20234;-78
2022/04/14 14:14:16;;;;;;;9.30;4.67;;;;;;;;;;5059099;28;20291;-78
2022/04/14 14:16:44;;;;;;;10.07;4.77;;;;;;;;;;5060470;28;20213;-78
2022/04/14 14:19:11;;;;;;;9.10;4.13;;;;;;;;;;5058234;28;20245;-79
2022/04/14 14:21:38;;;;;;;6.33;3.60;;;;;;;;;;5061914;28;20233;-77
2022/04/14 14:24:06;;;;;;;6.90;3.60;;;;;;;;;;5058986;28;20198;-78
2022/04/14 14:26:36;;;;;;;5.20;3.50;;;;;;;;;;5057076;28;20207;-78
2022/04/14 14:29:05;;;;;;;8.50;3.77;;;;;;;;;;5058710;28;20226;-79
2022/04/14 14:31:32;;;;;;;9.27;3.73;;;;;;;;;;5057372;28;20237;-78